createdAt,value
2022-10-02T00:03:02.565Z,100546.16
2022-10-02T00:07:08.153Z,100551.19
2022-10-02T00:11:17.406Z,100566.63
2022-10-02T00:15:27.040Z,100561.13
2022-10-02T00:19:29.920Z,100567.28
2022-10-02T00:23:38.834Z,100568.94
2022-10-02T00:27:50.790Z,100568.75
2022-10-02T00:32:10.503Z,100575.72
2022-10-02T00:36:25.320Z,100583.97
2022-10-02T00:40:40.620Z,100584.44
2022-10-02T00:44:56.775Z,100584.66
2022-10-02T00:49:12.409Z,100592.13
2022-10-02T00:53:24.852Z,100587.75
2022-10-02T00:57:40.978Z,100600.56
2022-10-02T01:01:57.469Z,100604.88
2022-10-02T01:06:00.257Z,100598.16
2022-10-02T01:10:03.062Z,100596.47
2022-10-02T01:14:05.926Z,100600.53
2022-10-02T01:18:15.101Z,100597.38
2022-10-02T01:22:25.917Z,100593.56
2022-10-02T01:26:30.188Z,100601.13
2022-10-02T01:30:35.661Z,100619.09
2022-10-02T01:34:38.844Z,100611.44
2022-10-02T01:38:42.978Z,100608.22
2022-10-02T01:42:47.248Z,100600.44
2022-10-02T01:46:57.315Z,100599.13
2022-10-02T01:51:14.002Z,100607.38
2022-10-02T01:55:37.507Z,100600.19
2022-10-02T01:59:51.899Z,100591.97
2022-10-02T02:04:02.113Z,100598.44
2022-10-02T02:08:10.833Z,100599.16
2022-10-02T02:12:20.368Z,100582.78
2022-10-02T02:16:31.797Z,100584.66
2022-10-02T02:20:39.857Z,100591.13
2022-10-02T02:24:46.170Z,100587.06
2022-10-02T02:28:51.566Z,100588.97
2022-10-02T02:32:58.839Z,100586.22
2022-10-02T02:37:07.036Z,100593.66
2022-10-02T02:41:16.285Z,100606.09
2022-10-02T02:45:23.307Z,100598.84
2022-10-02T02:49:30.934Z,100597.16
2022-10-02T02:53:39.147Z,100582.91
2022-10-02T02:57:47.042Z,100587.47
2022-10-02T03:01:49.911Z,100580.06
2022-10-02T03:06:01.412Z,100569.84
2022-10-02T03:10:12.930Z,100574.75
2022-10-02T03:14:36.208Z,100571.53
2022-10-02T03:18:50.820Z,100580.53
2022-10-02T03:23:02.292Z,100578.09
2022-10-02T03:27:10.160Z,100586.13
2022-10-02T03:31:16.273Z,100586.69
2022-10-02T03:35:19.310Z,100589.19
2022-10-02T03:39:25.947Z,100598.91
2022-10-02T03:43:31.010Z,100603.66
2022-10-02T03:47:34.105Z,100608.59
2022-10-02T03:51:37.301Z,100610.03
2022-10-02T03:55:45.119Z,100628.31
2022-10-02T03:59:53.349Z,100628.78
2022-10-02T04:04:00.960Z,100622.06
2022-10-02T04:08:13.617Z,100628.63
2022-10-02T04:12:23.945Z,100625.25
2022-10-02T04:16:32.640Z,100631.84
2022-10-02T04:20:41.887Z,100625.25
2022-10-02T04:24:49.472Z,100627.22
2022-10-02T04:28:59.330Z,100621.97
2022-10-02T04:33:12.041Z,100628.31
2022-10-02T04:37:38.456Z,100627.94
2022-10-02T04:41:58.538Z,100635.13
2022-10-02T04:46:16.527Z,100629.84
2022-10-02T04:50:37.498Z,100631.91
2022-10-02T04:55:23.001Z,100627.38
2022-10-02T04:59:36.787Z,100630.00
2022-10-02T05:04:04.162Z,100625.22
2022-10-02T05:08:22.720Z,100637.31
2022-10-02T05:12:39.733Z,100641.03
2022-10-02T05:17:04.827Z,100653.81
2022-10-02T05:21:22.716Z,100656.81
2022-10-02T05:25:46.157Z,100665.28
2022-10-02T05:30:05.579Z,100658.56
2022-10-02T05:34:23.536Z,100655.22
2022-10-02T05:38:54.836Z,100659.44
2022-10-02T05:43:05.287Z,100654.75
2022-10-02T05:47:13.721Z,100668.16
2022-10-02T05:51:24.430Z,100682.72
2022-10-02T05:55:35.286Z,100671.25
2022-10-02T05:59:44.236Z,100679.06
2022-10-02T06:03:50.806Z,100687.91
2022-10-02T06:07:59.378Z,100689.75
2022-10-02T06:12:07.694Z,100683.78
2022-10-02T06:16:15.709Z,100696.47
2022-10-02T06:20:23.818Z,100695.56
2022-10-02T06:24:31.957Z,100693.44
2022-10-02T06:28:39.229Z,100691.28
2022-10-02T06:32:47.098Z,100698.47
2022-10-02T06:37:19.309Z,100697.63
2022-10-02T06:41:30.080Z,100711.38
2022-10-02T06:45:46.326Z,100716.69
2022-10-02T06:50:04.691Z,100733.09
2022-10-02T06:54:20.506Z,100718.63
2022-10-02T06:58:45.432Z,100725.72
2022-10-02T07:03:06.693Z,100718.78
2022-10-02T07:07:23.120Z,100718.31
2022-10-02T07:11:32.758Z,100722.16
2022-10-02T07:16:17.830Z,100733.03
2022-10-02T07:20:34.309Z,100736.22
2022-10-02T07:24:58.255Z,100737.38
2022-10-02T07:29:14.460Z,100731.88
2022-10-02T07:33:30.003Z,100757.72
2022-10-02T07:37:43.866Z,100760.63
2022-10-02T07:42:26.610Z,100746.72
2022-10-02T07:46:40.307Z,100768.97
2022-10-02T07:51:01.276Z,100773.63
2022-10-02T07:55:19.302Z,100767.00
2022-10-02T07:59:22.218Z,100761.09
2022-10-02T08:03:29.354Z,100768.81
2022-10-02T08:07:32.963Z,100773.09
2022-10-02T08:11:49.223Z,100767.44
2022-10-02T08:15:56.617Z,100779.69
2022-10-02T08:20:05.109Z,100787.47
2022-10-02T08:24:14.722Z,100790.22
2022-10-02T08:28:24.747Z,100801.06
2022-10-02T08:32:35.026Z,100801.59
2022-10-02T08:37:03.329Z,100803.03
2022-10-02T08:41:30.953Z,100799.63
2022-10-02T08:46:12.010Z,100804.75
2022-10-02T08:50:56.622Z,100814.81
2022-10-02T08:55:39.223Z,100815.44
2022-10-02T09:00:14.480Z,100816.19
2022-10-02T09:04:49.422Z,100812.81
2022-10-02T09:09:20.265Z,100810.59
2022-10-02T09:13:46.575Z,100806.13
2022-10-02T09:17:58.870Z,100808.81
2022-10-02T09:22:25.228Z,100801.88
2022-10-02T09:26:37.979Z,100803.69
2022-10-02T09:31:03.740Z,100794.34
2022-10-02T09:35:40.426Z,100788.31
2022-10-02T09:40:11.301Z,100808.34
2022-10-02T09:45:01.517Z,100812.53
2022-10-02T09:49:27.483Z,100806.53
2022-10-02T09:54:05.323Z,100812.44
2022-10-02T09:58:44.086Z,100816.88
2022-10-02T10:03:25.941Z,100816.75
2022-10-02T10:08:07.678Z,100818.66
2022-10-02T10:12:41.704Z,100825.16
2022-10-02T10:17:30.782Z,100814.06
2022-10-02T10:22:08.946Z,100800.25
2022-10-02T10:26:43.219Z,100784.34
2022-10-02T10:31:20.074Z,100784.56
2022-10-02T10:35:35.176Z,100778.59
2022-10-02T10:40:25.178Z,100791.97
2022-10-02T10:45:19.986Z,100787.69
2022-10-02T10:49:47.849Z,100825.22
2022-10-02T10:54:17.483Z,100823.75
2022-10-02T10:58:35.260Z,100827.75
2022-10-02T11:03:19.351Z,100836.56
2022-10-02T11:07:41.551Z,100852.94
2022-10-02T11:12:08.815Z,100844.91
2022-10-02T11:16:35.760Z,100842.44
2022-10-02T11:20:57.373Z,100837.69
2022-10-02T11:25:32.012Z,100838.44
2022-10-02T11:30:00.057Z,100833.91
2022-10-02T11:34:24.516Z,100825.34
2022-10-02T11:39:08.432Z,100826.66
2022-10-02T11:43:32.729Z,100819.13
2022-10-02T11:48:24.277Z,100821.97
2022-10-02T11:52:54.048Z,100842.13
2022-10-02T11:57:15.092Z,100841.72
2022-10-02T12:01:24.482Z,100845.81
2022-10-02T12:05:46.136Z,100839.47
2022-10-02T12:10:04.375Z,100828.03
2022-10-02T12:14:22.842Z,100824.38
2022-10-02T12:18:41.254Z,100824.44
2022-10-02T12:23:08.279Z,100811.72
2022-10-02T12:27:20.099Z,100803.63
2022-10-02T12:31:33.341Z,100804.13
2022-10-02T12:35:56.873Z,100809.75
2022-10-02T12:40:09.499Z,100796.44
2022-10-02T12:44:44.918Z,100798.53
2022-10-02T12:49:01.758Z,100799.03
2022-10-02T12:53:52.254Z,100805.63
2022-10-02T12:58:08.378Z,100805.25
2022-10-02T13:03:01.424Z,100810.88
2022-10-02T13:07:30.214Z,100819.63
2022-10-02T13:11:44.753Z,100817.13
2022-10-02T13:15:54.882Z,100814.00
2022-10-02T13:20:13.957Z,100801.22
2022-10-02T13:24:34.376Z,100832.81
2022-10-02T13:28:53.775Z,100829.19
2022-10-02T13:33:12.734Z,100846.28
2022-10-02T13:37:30.753Z,100855.50
2022-10-02T13:41:47.814Z,100867.00
2022-10-02T13:46:02.696Z,100877.66
2022-10-02T13:50:38.518Z,100886.06
2022-10-02T13:55:05.845Z,100873.09
2022-10-02T13:59:20.534Z,100885.81
2022-10-02T14:03:36.331Z,100892.75
2022-10-02T14:07:58.814Z,100887.22
2022-10-02T14:12:25.018Z,100897.91
2022-10-02T14:16:40.588Z,100933.56
2022-10-02T14:20:51.109Z,100960.78
2022-10-02T14:25:22.934Z,100965.22
2022-10-02T14:29:45.778Z,100962.66
2022-10-02T14:34:02.665Z,100969.88
2022-10-02T14:38:31.781Z,100972.16
2022-10-02T14:42:48.455Z,100976.94
2022-10-02T14:47:04.711Z,100975.91
2022-10-02T14:51:23.386Z,100977.66
2022-10-02T14:55:38.715Z,100962.53
2022-10-02T15:00:02.174Z,100920.28
2022-10-02T15:04:26.277Z,100910.03
2022-10-02T15:08:35.167Z,100906.94
2022-10-02T15:12:48.496Z,100913.53
2022-10-02T15:17:23.636Z,100912.25
2022-10-02T15:21:33.407Z,100910.38
2022-10-02T15:26:03.789Z,100912.75
2022-10-02T15:30:18.430Z,100920.38
2022-10-02T15:34:30.211Z,100921.16
2022-10-02T15:38:53.439Z,100922.94
2022-10-02T15:42:59.075Z,100918.81
2022-10-02T15:47:15.690Z,100930.41
2022-10-02T15:51:32.170Z,100950.91
2022-10-02T15:55:42.811Z,100961.44
2022-10-02T16:00:04.656Z,100984.13
2022-10-02T16:04:16.286Z,100994.91
2022-10-02T16:08:40.943Z,101001.38
2022-10-02T16:13:02.947Z,101002.84
2022-10-02T16:17:27.187Z,101003.50
2022-10-02T16:21:52.957Z,101011.47
2022-10-02T16:26:08.991Z,101000.16
2022-10-02T16:30:15.453Z,101008.88
2022-10-02T16:34:39.822Z,101003.44
2022-10-02T16:38:49.622Z,101008.66
2022-10-02T16:42:57.886Z,101007.91
2022-10-02T16:47:12.071Z,101018.31
2022-10-02T16:51:27.811Z,101036.38
2022-10-02T16:55:35.865Z,101053.28
2022-10-02T16:59:46.077Z,101065.31
2022-10-02T17:04:20.128Z,101072.09
2022-10-02T17:08:32.200Z,101072.94
2022-10-02T17:12:46.475Z,101095.81
2022-10-02T17:16:56.681Z,101094.69
2022-10-02T17:21:12.909Z,101108.16
2022-10-02T17:25:21.865Z,101120.59
2022-10-02T17:29:30.104Z,101142.22
2022-10-02T17:33:45.159Z,101148.34
2022-10-02T17:38:27.266Z,101146.63
2022-10-02T17:42:43.552Z,101150.88
2022-10-02T17:47:01.177Z,101158.94
2022-10-02T17:51:47.509Z,101169.94
2022-10-02T17:56:23.479Z,101166.38
2022-10-02T18:00:28.322Z,101170.00
2022-10-02T18:04:46.758Z,101192.06
2022-10-02T18:09:11.834Z,101196.53
2022-10-02T18:13:26.205Z,101198.66
2022-10-02T18:17:43.628Z,101215.78
2022-10-02T18:21:56.523Z,101221.28
2022-10-02T18:26:18.774Z,101229.41
2022-10-02T18:30:23.834Z,101235.75
2022-10-02T18:34:45.281Z,101254.38
2022-10-02T18:38:58.889Z,101254.41
2022-10-02T18:43:22.020Z,101256.56
2022-10-02T18:47:36.939Z,101268.63
2022-10-02T18:52:08.070Z,101273.94
2022-10-02T18:56:13.524Z,101284.28
2022-10-02T19:00:21.607Z,101290.19
2022-10-02T19:05:04.817Z,101289.09
2022-10-02T19:09:21.735Z,101298.63
2022-10-02T19:13:28.787Z,101294.16
2022-10-02T19:17:32.869Z,101294.16
2022-10-02T19:21:37.259Z,101302.13
2022-10-02T19:25:47.901Z,101307.19
2022-10-02T19:29:55.899Z,101311.63
2022-10-02T19:34:03.353Z,101312.50
2022-10-02T19:38:12.602Z,101318.59
2022-10-02T19:42:24.893Z,101321.13
2022-10-02T19:46:35.916Z,101334.13
2022-10-02T19:50:42.183Z,101341.25
2022-10-02T19:54:45.104Z,101349.50
2022-10-02T19:58:51.483Z,101350.53
2022-10-02T20:02:57.338Z,101357.56
2022-10-02T20:07:02.340Z,101360.63
2022-10-02T20:11:10.011Z,101365.59
2022-10-02T20:15:40.093Z,101361.28
2022-10-02T20:19:48.294Z,101374.69
2022-10-02T20:23:57.969Z,101377.09
2022-10-02T20:28:06.942Z,101381.56
2022-10-02T20:32:16.826Z,101398.28
2022-10-02T20:36:22.109Z,101412.72
2022-10-02T20:40:28.937Z,101422.38
2022-10-02T20:44:36.721Z,101435.09
2022-10-02T20:49:08.902Z,101445.50
2022-10-02T20:53:48.514Z,101464.56
2022-10-02T20:58:09.418Z,101453.88
2022-10-02T21:02:31.417Z,101450.97
2022-10-02T21:06:49.118Z,101457.50
2022-10-02T21:11:17.483Z,101456.25
2022-10-02T21:15:39.581Z,101454.50
2022-10-02T21:20:33.283Z,101467.81
2022-10-02T21:25:22.129Z,101479.47
2022-10-02T21:29:40.543Z,101497.03
2022-10-02T21:33:51.262Z,101502.31
2022-10-02T21:38:09.886Z,101503.44
2022-10-02T21:42:51.386Z,101514.97
2022-10-02T21:47:30.454Z,101531.44
2022-10-02T21:52:02.086Z,101541.75
2022-10-02T21:56:35.104Z,101552.78
2022-10-02T22:00:50.789Z,101553.50
2022-10-02T22:05:30.301Z,101552.25
2022-10-02T22:09:48.609Z,101547.13
2022-10-02T22:13:55.616Z,101555.34
2022-10-02T22:18:08.530Z,101556.63
2022-10-02T22:22:23.209Z,101564.69
2022-10-02T22:26:40.374Z,101562.31
2022-10-02T22:31:04.404Z,101571.91
2022-10-02T22:35:21.002Z,101579.44
2022-10-02T22:39:30.294Z,101588.56
2022-10-02T22:43:41.215Z,101584.53
2022-10-02T22:47:52.127Z,101589.63
2022-10-02T22:52:01.987Z,101590.31
2022-10-02T22:56:23.865Z,101591.66
2022-10-02T23:00:29.421Z,101587.31
2022-10-02T23:04:40.906Z,101584.38
2022-10-02T23:08:53.297Z,101573.59
2022-10-02T23:13:03.385Z,101583.28
2022-10-02T23:17:12.418Z,101582.03
2022-10-02T23:21:26.946Z,101585.41
2022-10-02T23:25:36.104Z,101598.16
2022-10-02T23:29:46.720Z,101589.53
2022-10-02T23:33:58.108Z,101592.28
2022-10-02T23:38:13.162Z,101584.94
2022-10-02T23:42:26.764Z,101595.00
2022-10-02T23:46:34.882Z,101601.91
2022-10-02T23:50:49.809Z,101603.84
2022-10-02T23:55:07.342Z,101603.50
2022-10-02T23:59:26.446Z,101614.22
